Time;durP1;ratioP1;P1;durP2;ratioP2;P2;SDS_P1;SDS_P2;PMS_P1;PMS_P2;Temp;Humidity;BMP_temperature;BMP_pressure;BME280_temperature;BME280_humidity;BME280_pressure;Samples;Min_cycle;Max_cycle;Signal;HPM_P1;HPM_P2
2022/01/02 00:00:33;;;;;;;13.05;7.95;;;11.30;99.90;;;;;;5037526;28;20063;-82
2022/01/02 00:03:02;;;;;;;12.90;8.18;;;11.40;99.90;;;;;;5038366;28;20045;-82
2022/01/02 00:05:32;;;;;;;17.00;8.95;;;11.30;99.90;;;;;;5054056;28;20041;-82
2022/01/02 00:08:09;;;;;;;14.63;9.27;;;11.30;99.90;;;;;;5037556;28;20040;-82
2022/01/02 00:10:59;;;;;;;12.60;8.00;;;11.30;99.90;;;;;;5036507;28;20048;-82
2022/01/02 00:13:33;;;;;;;13.60;8.68;;;11.30;99.90;;;;;;5054260;28;20041;-82
2022/01/02 00:16:05;;;;;;;12.98;8.55;;;11.30;99.90;;;;;;5053868;28;20044;-82
2022/01/02 00:18:37;;;;;;;14.15;8.40;;;11.30;99.90;;;;;;5037462;28;20086;-82
2022/01/02 00:21:08;;;;;;;16.50;9.70;;;11.20;99.90;;;;;;5037015;28;20041;-83
2022/01/02 00:23:48;;;;;;;12.95;9.30;;;11.20;99.90;;;;;;5037729;28;20379;-83
2022/01/02 00:26:17;;;;;;;16.27;9.10;;;11.20;99.90;;;;;;5052826;28;20107;-83
2022/01/02 00:28:45;;;;;;;15.25;8.95;;;11.20;99.90;;;;;;5037272;28;20045;-82
2022/01/02 00:31:12;;;;;;;14.73;9.07;;;11.20;99.90;;;;;;5037016;28;20049;-82
2022/01/02 00:33:40;;;;;;;15.73;8.88;;;11.10;99.90;;;;;;5037498;28;20511;-82
2022/01/02 00:36:05;;;;;;;15.25;9.20;;;11.20;99.90;;;;;;5037060;28;20477;-82
2022/01/02 00:38:31;;;;;;;16.75;9.20;;;11.20;99.90;;;;;;5037084;28;20086;-82
2022/01/02 00:40:58;;;;;;;16.17;9.80;;;11.20;99.90;;;;;;5052660;28;20041;-82
2022/01/02 00:43:46;;;;;;;16.38;9.50;;;11.10;99.90;;;;;;5052847;28;20048;-82
2022/01/02 00:46:13;;;;;;;14.85;8.95;;;11.20;99.90;;;;;;5036720;28;20037;-82
2022/01/02 00:48:44;;;;;;;14.80;9.65;;;11.10;99.90;;;;;;5036815;28;20047;-82
2022/01/02 00:51:17;;;;;;;15.18;8.68;;;11.10;99.90;;;;;;5053353;28;20033;-82
2022/01/02 00:53:46;;;;;;;15.45;9.40;;;11.10;99.90;;;;;;5053746;28;20391;-82
2022/01/02 00:56:14;;;;;;;14.55;9.45;;;11.10;99.90;;;;;;5035584;28;20060;-82
2022/01/02 00:58:51;;;;;;;17.33;10.02;;;11.20;99.90;;;;;;5036687;28;20072;-82
2022/01/02 01:01:27;;;;;;;14.88;9.45;;;11.10;99.90;;;;;;5036577;28;20124;-82
2022/01/02 01:03:54;;;;;;;15.30;9.02;;;11.10;99.90;;;;;;5036849;28;20083;-82
2022/01/02 01:06:25;;;;;;;17.08;9.50;;;11.10;99.90;;;;;;5036678;28;20056;-82
2022/01/02 01:08:57;;;;;;;15.10;9.68;;;11.10;99.90;;;;;;5036553;28;20045;-82
2022/01/02 01:11:27;;;;;;;17.60;9.60;;;11.10;99.90;;;;;;5068989;28;20080;-82
2022/01/02 01:13:55;;;;;;;15.85;9.50;;;11.10;99.90;;;;;;5036624;28;20500;-82
2022/01/02 01:16:20;;;;;;;16.45;9.75;;;11.10;99.90;;;;;;5036612;28;20485;-82
2022/01/02 01:18:47;;;;;;;14.48;9.07;;;11.10;99.90;;;;;;5052893;28;20037;-82
2022/01/02 01:21:13;;;;;;;15.55;9.65;;;11.10;99.90;;;;;;5035841;28;20045;-82
2022/01/02 01:23:40;;;;;;;14.65;9.73;;;11.10;99.90;;;;;;5036260;28;20048;-82
2022/01/02 01:26:09;;;;;;;14.10;9.18;;;11.10;99.90;;;;;;5051761;28;20048;-82
2022/01/02 01:28:34;;;;;;;15.50;9.60;;;11.10;99.90;;;;;;5042764;28;20047;-82
2022/01/02 01:31:00;;;;;;;15.68;10.20;;;11.10;99.90;;;;;;5055660;28;20492;-82
2022/01/02 01:33:26;;;;;;;14.95;9.07;;;11.00;99.90;;;;;;5056040;28;20047;-82
2022/01/02 01:35:52;;;;;;;17.73;10.00;;;11.10;99.90;;;;;;5072534;28;20056;-82
2022/01/02 01:38:17;;;;;;;16.88;10.02;;;11.10;99.90;;;;;;5039264;28;20037;-82
2022/01/02 01:40:51;;;;;;;17.90;10.45;;;11.00;99.90;;;;;;5054864;28;20040;-83
2022/01/02 01:43:17;;;;;;;16.63;10.05;;;11.10;99.90;;;;;;5072472;28;20040;-83
2022/01/02 01:45:44;;;;;;;18.27;10.45;;;11.10;99.90;;;;;;5039131;28;20040;-83
2022/01/02 01:48:10;;;;;;;21.52;11.52;;;11.00;99.90;;;;;;5039397;28;20443;-83
2022/01/02 01:50:41;;;;;;;17.95;10.50;;;11.00;99.90;;;;;;5038865;28;20131;-83
2022/01/02 01:53:08;;;;;;;17.05;9.82;;;11.00;99.90;;;;;;5072414;28;20068;-83
2022/01/02 01:55:35;;;;;;;15.55;9.70;;;11.00;99.90;;;;;;5054364;28;20457;-83
2022/01/02 01:58:02;;;;;;;18.92;10.60;;;11.10;99.90;;;;;;5072107;28;20463;-83
2022/01/02 02:00:30;;;;;;;18.08;10.15;;;11.10;99.90;;;;;;5039152;28;20548;-83
2022/01/02 02:02:56;;;;;;;18.20;10.15;;;11.00;99.90;;;;;;5055452;28;20098;-83
2022/01/02 02:05:22;;;;;;;18.73;10.05;;;11.10;99.90;;;;;;5055298;28;20040;-83
2022/01/02 02:07:48;;;;;;;21.20;11.35;;;11.00;99.90;;;;;;5022747;28;20105;-83
2022/01/02 02:10:38;;;;;;;18.25;10.25;;;11.00;99.90;;;;;;5071207;28;20040;-83
2022/01/02 02:13:05;;;;;;;19.02;10.50;;;11.00;99.90;;;;;;5055549;28;20154;-83
2022/01/02 02:15:31;;;;;;;19.02;10.93;;;11.00;99.90;;;;;;5055187;28;20048;-83
2022/01/02 02:17:57;;;;;;;19.45;10.52;;;11.00;99.90;;;;;;5047515;28;20391;-83
2022/01/02 02:20:29;;;;;;;19.98;10.88;;;11.00;99.90;;;;;;5035036;28;20094;-83
2022/01/02 02:22:56;;;;;;;;;;;11.00;99.90;;;;;;5036049;28;20036;-83
2022/01/02 02:25:27;;;;;;;16.77;9.55;;;11.00;99.90;;;;;;5034757;28;20275;-83
2022/01/02 02:28:04;;;;;;;16.27;9.85;;;11.00;99.90;;;;;;5051922;28;20044;-83
2022/01/02 02:30:32;;;;;;;18.90;9.82;;;11.10;99.90;;;;;;5034935;28;20052;-83
2022/01/02 02:33:00;;;;;;;17.02;9.98;;;11.00;99.90;;;;;;5052047;28;20387;-83
2022/01/02 02:35:27;;;;;;;17.58;9.70;;;11.10;99.90;;;;;;5035144;28;20627;-83
2022/01/02 02:37:54;;;;;;;19.45;10.88;;;11.10;99.90;;;;;;5035466;28;20141;-83
2022/01/02 02:40:21;;;;;;;18.63;10.32;;;11.10;99.90;;;;;;5039313;28;20039;-83
2022/01/02 02:42:58;;;;;;;18.75;10.48;;;11.10;99.90;;;;;;5002665;28;20052;-83
2022/01/02 02:51:05;;;;;;;18.90;10.43;;;11.10;99.90;;;;;;5051421;28;20081;-83
2022/01/02 02:53:33;;;;;;;19.42;10.45;;;11.10;99.90;;;;;;5051804;28;20041;-83
2022/01/02 02:55:59;;;;;;;16.27;10.10;;;11.10;99.90;;;;;;5033836;28;20114;-83
2022/01/02 03:01:01;;;;;;;19.45;11.77;;;11.10;99.90;;;;;;5051333;28;20049;-83
2022/01/02 03:03:26;;;;;;;17.75;10.30;;;11.10;99.90;;;;;;5035112;28;20041;-83
2022/01/02 03:05:52;;;;;;;20.10;10.90;;;11.10;99.90;;;;;;5051478;28;20044;-83
2022/01/02 03:08:18;;;;;;;20.23;10.95;;;11.20;99.90;;;;;;5055359;28;20049;-83
2022/01/02 03:10:44;;;;;;;18.83;10.52;;;11.10;99.90;;;;;;5037811;28;20068;-83
2022/01/02 03:13:10;;;;;;;19.48;10.57;;;11.10;99.90;;;;;;5038637;28;20039;-83
2022/01/02 03:15:35;;;;;;;16.48;10.02;;;11.10;99.90;;;;;;5038660;28;20495;-83
2022/01/02 03:18:01;;;;;;;20.15;10.75;;;11.10;99.90;;;;;;5038594;28;20037;-83
2022/01/02 03:20:27;;;;;;;18.23;10.43;;;11.10;99.90;;;;;;5054880;28;20106;-83
2022/01/02 03:22:53;;;;;;;18.02;10.30;;;11.10;99.90;;;;;;5038830;28;20443;-83
2022/01/02 03:25:18;;;;;;;19.48;10.30;;;11.10;99.90;;;;;;5037505;28;20033;-83
2022/01/02 03:27:45;;;;;;;18.85;10.60;;;11.00;99.90;;;;;;5039959;28;20098;-83
2022/01/02 03:30:12;;;;;;;20.83;11.02;;;11.00;99.90;;;;;;5038443;28;20393;-83
2022/01/02 03:32:39;;;;;;;19.95;10.38;;;11.00;99.90;;;;;;5039142;28;20044;-83
2022/01/02 03:35:06;;;;;;;18.65;10.65;;;11.00;99.90;;;;;;5066447;28;20451;-83
2022/01/02 03:37:33;;;;;;;18.75;10.88;;;11.00;99.90;;;;;;5037777;28;20459;-83
2022/01/02 03:40:01;;;;;;;17.95;9.93;;;10.90;99.90;;;;;;5048626;28;20045;-83
2022/01/02 03:42:27;;;;;;;17.65;10.45;;;10.90;99.90;;;;;;5023042;28;20491;-83
2022/01/02 03:44:52;;;;;;;20.70;10.73;;;10.90;99.90;;;;;;5057329;28;20041;-83
2022/01/02 03:47:18;;;;;;;19.95;10.30;;;10.90;99.90;;;;;;5035856;28;20044;-83
2022/01/02 03:49:44;;;;;;;19.13;10.68;;;10.90;99.90;;;;;;5057353;28;20041;-83
2022/01/02 03:52:10;;;;;;;20.63;10.35;;;10.90;99.90;;;;;;5068707;28;20035;-83
2022/01/02 03:54:36;;;;;;;16.35;9.70;;;10.90;99.90;;;;;;5057790;28;20501;-83
2022/01/02 03:57:02;;;;;;;19.35;10.75;;;11.00;99.90;;;;;;5064766;28;20496;-83
2022/01/02 03:59:28;;;;;;;20.40;10.50;;;10.90;99.90;;;;;;5057576;28;20068;-83
2022/01/02 04:01:54;;;;;;;22.40;10.98;;;10.90;99.90;;;;;;5041439;28;20065;-83
2022/01/02 04:04:19;;;;;;;20.33;10.13;;;10.90;99.90;;;;;;5045933;28;20036;-83
2022/01/02 04:06:45;;;;;;;18.15;10.45;;;10.90;99.90;;;;;;5048229;28;20074;-83
2022/01/02 04:09:11;;;;;;;19.40;10.80;;;11.00;99.90;;;;;;5037155;28;20040;-83
2022/01/02 04:11:37;;;;;;;21.40;10.00;;;11.00;99.90;;;;;;5036171;28;20489;-83
2022/01/02 04:14:02;;;;;;;19.23;9.23;;;11.00;99.90;;;;;;5053585;28;20134;-83
2022/01/02 04:16:28;;;;;;;23.88;10.68;;;11.00;99.90;;;;;;5037164;28;20396;-83
2022/01/02 04:18:54;;;;;;;17.02;9.60;;;11.00;99.90;;;;;;5070643;28;20037;-83
2022/01/02 04:21:19;;;;;;;19.27;9.43;;;11.10;99.90;;;;;;5037107;28;20041;-83
2022/01/02 04:23:45;;;;;;;23.33;10.18;;;11.10;99.90;;;;;;5040994;28;20036;-83
2022/01/02 04:26:11;;;;;;;19.85;9.65;;;11.10;99.90;;;;;;5023261;28;20078;-83
2022/01/02 04:28:36;;;;;;;24.02;9.73;;;11.00;99.90;;;;;;5057198;28;20040;-83
2022/01/02 04:31:02;;;;;;;22.83;10.38;;;11.00;99.90;;;;;;5073740;28;20052;-83
2022/01/02 04:33:28;;;;;;;22.70;11.05;;;11.00;99.90;;;;;;5057110;28;20041;-83
2022/01/02 04:35:54;;;;;;;19.63;9.13;;;11.00;99.90;;;;;;5073635;28;20385;-83
2022/01/02 04:38:20;;;;;;;20.65;10.80;;;11.00;99.90;;;;;;5090706;28;20086;-83
2022/01/02 04:40:48;;;;;;;22.60;9.85;;;10.90;99.90;;;;;;5072647;28;20076;-83
2022/01/02 04:43:14;;;;;;;19.35;10.02;;;11.00;99.90;;;;;;5041028;28;20059;-83
2022/01/02 04:45:39;;;;;;;23.02;9.88;;;11.00;99.90;;;;;;5056655;28;20177;-83
2022/01/02 04:48:05;;;;;;;16.85;9.27;;;11.00;99.90;;;;;;5018740;28;20437;-83
2022/01/02 04:50:31;;;;;;;21.98;9.80;;;11.00;99.90;;;;;;5053233;28;20049;-83
2022/01/02 04:52:57;;;;;;;20.90;9.35;;;11.00;99.90;;;;;;5053418;28;20041;-83
2022/01/02 04:55:23;;;;;;;21.23;9.63;;;11.00;99.90;;;;;;5052055;28;20049;-82
2022/01/02 04:57:48;;;;;;;17.88;8.93;;;11.00;99.90;;;;;;5036739;28;20052;-83
2022/01/02 05:00:14;;;;;;;20.58;9.68;;;11.10;99.90;;;;;;5053172;28;20131;-83
2022/01/02 05:02:40;;;;;;;16.90;9.10;;;11.10;99.90;;;;;;5053617;28;20404;-83
2022/01/02 05:05:06;;;;;;;18.98;9.05;;;11.10;99.90;;;;;;5053131;28;20128;-83
2022/01/02 05:07:32;;;;;;;19.65;9.57;;;11.10;99.90;;;;;;5053090;28;20091;-83
2022/01/02 05:09:58;;;;;;;24.17;9.70;;;11.10;99.90;;;;;;5036357;28;20045;-83
2022/01/02 05:12:23;;;;;;;20.95;9.43;;;11.10;99.90;;;;;;5052065;28;20033;-83
2022/01/02 05:14:49;;;;;;;18.27;9.27;;;11.10;99.90;;;;;;5036585;28;20033;-83
2022/01/02 05:17:15;;;;;;;25.15;9.10;;;11.20;99.90;;;;;;5052749;28;20049;-83
2022/01/02 05:19:40;;;;;;;20.95;9.18;;;11.20;99.90;;;;;;5052743;28;20524;-83
2022/01/02 05:22:06;;;;;;;20.42;9.07;;;11.20;99.90;;;;;;5035954;28;20067;-83
2022/01/02 05:24:32;;;;;;;18.77;8.50;;;11.20;99.90;;;;;;5036221;28;20044;-83
2022/01/02 05:26:57;;;;;;;18.75;8.65;;;11.20;99.90;;;;;;5035480;28;20048;-83
2022/01/02 05:29:23;;;;;;;21.83;8.30;;;11.30;99.90;;;;;;5052201;28;20115;-83
2022/01/02 05:31:50;;;;;;;18.58;8.52;;;11.30;99.90;;;;;;5042491;28;20101;-83
2022/01/02 05:34:16;;;;;;;19.30;8.73;;;11.30;99.90;;;;;;5055471;28;20046;-83
2022/01/02 05:36:48;;;;;;;22.10;9.30;;;11.30;99.90;;;;;;5072081;28;20028;-83
2022/01/02 05:39:18;;;;;;;20.75;9.27;;;11.30;99.90;;;;;;5055914;28;20466;-83
2022/01/02 05:41:46;;;;;;;21.10;9.02;;;11.30;99.90;;;;;;5038250;28;20052;-83
2022/01/02 05:44:13;;;;;;;18.85;8.93;;;11.30;99.90;;;;;;5055962;28;20127;-83
2022/01/02 05:46:39;;;;;;;25.35;9.63;;;11.30;99.90;;;;;;5055950;28;20041;-83
2022/01/02 05:49:05;;;;;;;20.92;8.52;;;11.30;99.90;;;;;;5068541;28;20040;-84
2022/01/02 05:51:30;;;;;;;17.63;7.70;;;11.30;99.90;;;;;;5035319;28;20048;-83
2022/01/02 05:53:56;;;;;;;19.63;8.20;;;11.40;99.90;;;;;;5038642;28;20090;-83
2022/01/02 05:56:22;;;;;;;20.67;7.63;;;11.40;99.90;;;;;;5054093;28;20080;-84
2022/01/02 05:58:48;;;;;;;16.50;7.00;;;11.50;99.90;;;;;;5049830;28;20029;-83
2022/01/02 06:01:13;;;;;;;17.02;6.95;;;11.50;99.90;;;;;;5038724;28;20123;-83
2022/01/02 06:03:39;;;;;;;18.80;6.85;;;11.50;99.90;;;;;;5035035;28;20068;-83
2022/01/02 06:06:05;;;;;;;16.67;6.28;;;11.60;99.90;;;;;;5017384;28;20102;-83
2022/01/02 06:08:31;;;;;;;16.60;6.18;;;11.70;99.90;;;;;;5069029;28;20037;-83
2022/01/02 06:10:57;;;;;;;17.38;5.70;;;11.70;99.90;;;;;;5037291;28;20040;-83
2022/01/02 06:13:22;;;;;;;17.75;6.32;;;11.80;99.90;;;;;;5055165;28;20040;-83
2022/01/02 06:15:49;;;;;;;14.27;5.95;;;11.90;99.90;;;;;;5071763;28;20123;-83
2022/01/02 06:18:15;;;;;;;11.80;5.22;;;11.90;99.90;;;;;;5045520;28;20045;-83
2022/01/02 06:20:40;;;;;;;19.67;5.78;;;11.90;99.90;;;;;;5051641;28;20052;-83
2022/01/02 06:23:06;;;;;;;17.55;5.70;;;11.90;99.90;;;;;;5018976;28;20420;-83
2022/01/02 06:25:33;;;;;;;13.85;5.00;;;12.00;99.90;;;;;;5050818;28;20216;-84
2022/01/02 06:28:00;;;;;;;12.50;5.25;;;12.00;99.90;;;;;;5019253;28;20496;-83
2022/01/02 06:30:25;;;;;;;12.52;4.80;;;12.00;99.90;;;;;;5035066;28;20396;-83
2022/01/02 06:32:55;;;;;;;14.93;5.50;;;12.00;99.90;;;;;;5035536;28;20041;-83
2022/01/02 06:35:32;;;;;;;16.00;5.25;;;12.00;99.90;;;;;;5019109;28;20582;-83
2022/01/02 06:37:58;;;;;;;11.88;4.57;;;12.10;99.90;;;;;;5030751;28;20036;-83
2022/01/02 06:40:25;;;;;;;13.90;4.70;;;12.10;99.90;;;;;;5036958;28;20048;-83
2022/01/02 06:42:52;;;;;;;13.13;4.53;;;12.10;99.90;;;;;;5034693;28;20418;-83
2022/01/02 06:45:18;;;;;;;13.63;4.78;;;12.10;99.90;;;;;;5048507;28;20048;-83
2022/01/02 06:47:44;;;;;;;16.35;5.30;;;12.10;99.90;;;;;;5055587;28;20404;-83
2022/01/02 06:50:14;;;;;;;13.45;4.95;;;12.10;99.90;;;;;;5058759;28;20036;-83
2022/01/02 06:52:40;;;;;;;14.88;5.65;;;12.00;99.90;;;;;;5059442;28;20044;-83
2022/01/02 06:55:06;;;;;;;13.85;5.10;;;12.00;99.90;;;;;;5038677;28;20098;-83
2022/01/02 06:57:32;;;;;;;13.60;5.13;;;12.00;99.90;;;;;;5041868;28;20145;-82
2022/01/02 06:59:58;;;;;;;14.32;5.10;;;12.00;99.90;;;;;;5070482;28;20088;-82
2022/01/02 07:02:24;;;;;;;15.23;5.50;;;12.00;99.90;;;;;;5069976;28;20041;-82
2022/01/02 07:04:49;;;;;;;12.57;5.10;;;11.90;99.90;;;;;;5036825;28;20076;-83
2022/01/02 07:07:15;;;;;;;11.80;5.03;;;12.00;99.90;;;;;;5053422;28;20753;-83
2022/01/02 07:09:41;;;;;;;13.43;5.20;;;12.00;99.90;;;;;;5035978;28;20128;-83
2022/01/02 07:12:07;;;;;;;13.73;5.38;;;12.00;99.90;;;;;;5035836;28;20072;-83
2022/01/02 07:14:33;;;;;;;11.15;5.10;;;12.00;99.90;;;;;;5036618;28;20072;-83
2022/01/02 07:16:59;;;;;;;14.23;5.78;;;12.00;99.90;;;;;;5059664;28;20517;-83
2022/01/02 07:19:25;;;;;;;14.98;5.57;;;12.00;99.90;;;;;;5036657;28;20401;-83
2022/01/02 07:21:52;;;;;;;13.00;5.45;;;12.00;99.90;;;;;;5036441;28;20130;-83
2022/01/02 07:24:18;;;;;;;15.13;5.57;;;11.90;99.90;;;;;;5036314;28;20454;-83
2022/01/02 07:26:44;;;;;;;13.25;5.47;;;11.90;99.90;;;;;;5042216;28;20073;-83
2022/01/02 07:29:10;;;;;;;13.55;5.65;;;11.90;99.90;;;;;;5036281;28;20094;-83
2022/01/02 07:31:37;;;;;;;15.57;5.75;;;11.90;99.90;;;;;;5019507;28;20052;-83
2022/01/02 07:34:03;;;;;;;13.65;5.60;;;11.80;99.90;;;;;;5036552;28;20079;-83
2022/01/02 07:36:29;;;;;;;15.32;6.07;;;11.80;99.90;;;;;;5036097;28;20128;-83
2022/01/02 07:38:55;;;;;;;12.68;5.32;;;11.80;99.90;;;;;;5050632;28;20128;-83
2022/01/02 07:41:20;;;;;;;12.30;5.30;;;11.80;99.90;;;;;;5035309;28;20688;-83
2022/01/02 07:43:46;;;;;;;13.20;5.90;;;11.80;99.90;;;;;;5036190;28;20041;-83
2022/01/02 07:46:12;;;;;;;13.70;5.63;;;11.80;99.90;;;;;;5053694;28;20051;-83
2022/01/02 07:48:38;;;;;;;12.30;5.63;;;11.80;99.90;;;;;;5051115;28;20123;-83
2022/01/02 07:51:04;;;;;;;13.52;5.60;;;11.70;99.90;;;;;;5052254;28;20132;-83
2022/01/02 07:53:30;;;;;;;11.70;5.38;;;11.70;99.90;;;;;;5052215;28;20053;-83
2022/01/02 07:55:56;;;;;;;14.00;5.97;;;11.70;99.90;;;;;;5018510;28;20049;-83
2022/01/02 07:58:22;;;;;;;13.18;5.60;;;11.70;99.90;;;;;;5036089;28;20127;-83
2022/01/02 08:00:50;;;;;;;13.80;5.43;;;11.80;99.90;;;;;;5052216;28;20041;-83
2022/01/02 08:03:16;;;;;;;14.30;5.70;;;11.80;99.90;;;;;;5035689;28;20183;-83
2022/01/02 08:05:42;;;;;;;17.95;6.18;;;11.70;99.90;;;;;;5035244;28;20037;-83
2022/01/02 08:08:08;;;;;;;14.27;5.97;;;11.70;99.90;;;;;;5021628;28;20037;-83
2022/01/02 08:10:34;;;;;;;13.00;5.68;;;11.70;99.90;;;;;;5034682;28;20045;-83
2022/01/02 08:13:00;;;;;;;12.10;5.70;;;11.60;99.90;;;;;;5002815;28;20397;-83
2022/01/02 08:15:29;;;;;;;12.75;5.38;;;11.60;99.90;;;;;;5067894;28;20052;-83
2022/01/02 08:17:54;;;;;;;12.45;6.03;;;11.60;99.90;;;;;;5036895;28;20044;-83
2022/01/02 08:20:20;;;;;;;14.98;5.90;;;11.60;99.90;;;;;;5038575;28;20132;-83
2022/01/02 08:22:46;;;;;;;13.38;5.45;;;11.70;99.90;;;;;;5038149;28;20041;-83
2022/01/02 08:25:11;;;;;;;14.15;5.40;;;11.70;99.90;;;;;;5037934;28;20506;-83
2022/01/02 08:27:37;;;;;;;11.43;5.35;;;11.70;99.90;;;;;;5071576;28;20129;-83
2022/01/02 08:30:04;;;;;;;15.13;5.68;;;11.70;99.90;;;;;;5054794;28;20152;-83
2022/01/02 08:32:29;;;;;;;12.40;5.65;;;11.70;99.90;;;;;;5038710;28;20123;-83
2022/01/02 08:34:55;;;;;;;12.15;5.90;;;11.70;99.90;;;;;;5022152;28;20119;-83
2022/01/02 08:37:21;;;;;;;12.48;5.68;;;11.60;99.90;;;;;;5039741;28;20032;-83
2022/01/02 08:39:47;;;;;;;12.18;5.50;;;11.60;99.90;;;;;;5048496;28;20048;-83
2022/01/02 08:42:13;;;;;;;12.07;5.60;;;11.70;99.90;;;;;;5035580;28;20484;-83
2022/01/02 08:44:41;;;;;;;16.17;6.40;;;11.60;99.90;;;;;;5053598;28;20041;-83
2022/01/02 08:47:07;;;;;;;12.95;5.43;;;11.60;99.90;;;;;;5053414;28;20040;-83
2022/01/02 08:49:33;;;;;;;11.70;5.80;;;11.60;99.90;;;;;;5037002;28;20033;-83
2022/01/02 08:51:59;;;;;;;12.05;5.40;;;11.60;99.90;;;;;;5053187;28;20076;-83
2022/01/02 08:54:25;;;;;;;14.85;5.70;;;11.60;99.90;;;;;;5053403;28;20045;-83
2022/01/02 08:56:51;;;;;;;11.93;5.03;;;11.60;99.90;;;;;;5019205;28;20060;-83
2022/01/02 08:59:17;;;;;;;10.85;5.13;;;11.60;99.90;;;;;;5018684;28;20112;-83
2022/01/02 09:01:43;;;;;;;13.32;4.70;;;11.60;99.90;;;;;;5035343;28;20094;-83
2022/01/02 09:04:09;;;;;;;10.30;4.93;;;11.60;99.90;;;;;;5002845;28;20181;-83
2022/01/02 09:06:35;;;;;;;12.68;4.43;;;11.70;99.90;;;;;;5036181;28;20045;-83
2022/01/02 09:09:02;;;;;;;12.68;4.60;;;11.70;99.90;;;;;;5020074;28;20037;-83
2022/01/02 09:11:28;;;;;;;12.75;5.03;;;11.70;99.90;;;;;;5019036;28;20045;-83
2022/01/02 09:13:53;;;;;;;10.00;4.68;;;11.70;99.90;;;;;;5020393;28;20037;-83
2022/01/02 09:16:19;;;;;;;11.60;4.80;;;11.80;99.90;;;;;;5019809;28;20098;-83
2022/01/02 09:18:45;;;;;;;11.98;4.70;;;11.80;99.90;;;;;;5053183;28;20097;-83
2022/01/02 09:21:11;;;;;;;13.10;5.00;;;11.80;99.90;;;;;;5036143;28;20044;-83
2022/01/02 09:23:37;;;;;;;12.32;4.50;;;11.90;99.90;;;;;;5036297;28;20064;-83
2022/01/02 09:26:03;;;;;;;11.82;5.05;;;11.90;99.90;;;;;;5035492;28;20044;-83
2022/01/02 09:28:28;;;;;;;11.95;4.85;;;11.90;99.90;;;;;;5019737;28;20045;-83
2022/01/02 09:30:54;;;;;;;12.55;5.20;;;11.80;99.90;;;;;;5019370;28;20052;-83
2022/01/02 09:33:20;;;;;;;11.10;4.97;;;11.80;99.90;;;;;;5052710;28;20041;-83
2022/01/02 09:35:46;;;;;;;10.68;4.85;;;11.70;99.90;;;;;;5052441;28;20040;-83
2022/01/02 09:38:12;;;;;;;10.88;4.80;;;11.70;99.90;;;;;;5019860;28;20396;-83
2022/01/02 09:40:39;;;;;;;10.95;4.70;;;11.70;99.90;;;;;;5051594;28;20041;-83
2022/01/02 09:43:05;;;;;;;14.35;5.07;;;11.70;99.90;;;;;;5052682;28;20075;-83
2022/01/02 09:45:33;;;;;;;9.57;4.50;;;11.70;99.90;;;;;;5052233;28;20535;-83
2022/01/02 09:48:00;;;;;;;10.60;4.68;;;11.70;99.90;;;;;;5052674;28;20044;-83
2022/01/02 09:50:26;;;;;;;11.88;4.47;;;11.70;99.90;;;;;;5052028;28;20049;-83
2022/01/02 09:52:52;;;;;;;9.43;4.60;;;11.70;99.90;;;;;;5052546;28;20036;-83
2022/01/02 09:55:19;;;;;;;11.20;4.95;;;11.70;99.90;;;;;;5018322;28;20057;-83
2022/01/02 09:57:47;;;;;;;12.40;5.25;;;11.80;99.90;;;;;;5052423;28;20041;-83
2022/01/02 10:00:15;;;;;;;10.77;4.85;;;11.80;99.90;;;;;;5052098;28;20044;-83
2022/01/02 10:03:03;;;;;;;11.25;5.00;;;11.80;99.90;;;;;;5035863;28;20468;-83
2022/01/02 10:05:30;;;;;;;9.98;4.65;;;11.80;99.90;;;;;;5035297;28;20041;-83
2022/01/02 10:07:57;;;;;;;12.35;5.22;;;11.70;99.90;;;;;;5052098;28;20032;-83
2022/01/02 10:10:33;;;;;;;10.20;5.03;;;11.70;99.90;;;;;;5034420;28;20079;-83
2022/01/02 10:13:01;;;;;;;11.27;5.10;;;11.70;99.90;;;;;;5035547;28;20443;-83
2022/01/02 10:15:28;;;;;;;11.23;4.65;;;11.70;99.90;;;;;;5035256;28;20048;-83
2022/01/02 10:18:04;;;;;;;11.25;4.80;;;11.70;99.90;;;;;;5035445;28;20068;-83
2022/01/02 10:20:32;;;;;;;11.30;4.97;;;11.80;99.90;;;;;;5035320;28;20502;-83
2022/01/02 10:23:12;;;;;;;8.93;4.72;;;11.80;99.90;;;;;;5035307;28;20053;-83
2022/01/02 10:25:53;;;;;;;9.82;4.80;;;11.80;99.90;;;;;;5034618;28;20107;-83
2022/01/02 10:28:32;;;;;;;9.95;4.65;;;11.80;99.90;;;;;;5035201;28;20052;-83
2022/01/02 10:31:08;;;;;;;11.50;5.28;;;11.80;99.90;;;;;;5034947;28;20144;-83
2022/01/02 10:33:53;;;;;;;11.60;5.15;;;11.80;99.90;;;;;;5051790;28;20037;-83
2022/01/02 10:36:34;;;;;;;12.13;5.22;;;11.80;99.90;;;;;;5051550;28;20040;-83
2022/01/02 10:38:59;;;;;;;11.52;5.30;;;11.90;99.90;;;;;;5051820;28;20077;-83
2022/01/02 10:41:33;;;;;;;11.18;5.45;;;11.90;99.90;;;;;;5051346;28;20032;-83
2022/01/02 10:44:26;;;;;;;10.35;5.07;;;11.90;99.90;;;;;;5051591;28;20207;-83
2022/01/02 10:47:09;;;;;;;10.82;4.93;;;11.90;99.90;;;;;;5051466;28;20109;-82
2022/01/02 10:50:12;;;;;;;11.52;5.13;;;12.00;99.90;;;;;;5035209;28;20045;-82
2022/01/02 10:52:45;;;;;;;10.65;4.60;;;12.00;99.90;;;;;;5035114;28;20115;-82
2022/01/02 10:55:25;;;;;;;10.32;5.00;;;12.10;99.90;;;;;;5051117;28;20069;-82
2022/01/02 10:57:57;;;;;;;11.40;4.80;;;12.10;99.90;;;;;;5018471;28;20049;-82
2022/01/02 11:00:27;;;;;;;10.50;4.70;;;12.10;99.90;;;;;;5034677;28;20072;-82
2022/01/02 11:02:53;;;;;;;11.65;5.20;;;12.10;99.90;;;;;;5034874;28;20128;-82
2022/01/02 11:05:22;;;;;;;9.15;5.07;;;12.10;99.90;;;;;;5034686;28;20037;-83
2022/01/02 11:07:55;;;;;;;11.80;5.43;;;12.10;99.90;;;;;;5034731;28;20037;-83
2022/01/02 11:10:23;;;;;;;11.43;5.47;;;12.10;99.90;;;;;;5033693;28;20075;-82
2022/01/02 11:12:50;;;;;;;10.98;5.55;;;12.20;99.90;;;;;;5035057;28;20048;-82
2022/01/02 11:15:18;;;;;;;11.60;5.35;;;12.30;99.90;;;;;;5051439;28;20077;-82
2022/01/02 11:17:45;;;;;;;11.63;5.47;;;12.20;99.90;;;;;;5035101;28;20041;-82
2022/01/02 11:20:16;;;;;;;11.75;5.20;;;12.20;99.90;;;;;;5034516;28;20128;-82
2022/01/02 11:23:05;;;;;;;10.50;4.82;;;12.20;99.90;;;;;;5051660;28;20087;-82
2022/01/02 11:25:43;;;;;;;9.82;4.85;;;12.20;99.90;;;;;;5032724;28;20072;-82
2022/01/02 11:28:32;;;;;;;9.73;5.25;;;12.30;99.90;;;;;;5053285;28;20129;-82
2022/01/02 11:30:57;;;;;;;14.38;5.40;;;12.30;99.90;;;;;;5031893;28;20407;-82
2022/01/02 11:33:32;;;;;;;11.82;5.18;;;12.30;99.90;;;;;;5055024;28;20044;-82
2022/01/02 11:36:00;;;;;;;11.70;5.50;;;12.20;99.90;;;;;;5054866;28;20504;-83
2022/01/02 11:38:42;;;;;;;10.85;5.38;;;12.20;99.90;;;;;;5038471;28;20069;-83
2022/01/02 11:41:08;;;;;;;13.23;5.85;;;12.20;99.90;;;;;;5054134;28;20045;-83
2022/01/02 11:43:46;;;;;;;12.40;4.97;;;12.30;99.90;;;;;;5038051;28;20179;-83
2022/01/02 11:46:20;;;;;;;10.35;4.90;;;12.30;99.90;;;;;;5038374;28;20493;-83
2022/01/02 11:49:04;;;;;;;12.95;5.50;;;12.30;99.90;;;;;;5038100;28;20041;-83
2022/01/02 11:51:48;;;;;;;13.45;5.38;;;12.30;99.90;;;;;;5037775;28;20046;-83
2022/01/02 11:54:32;;;;;;;9.82;4.80;;;12.30;99.90;;;;;;5037999;28;20037;-83
2022/01/02 11:57:26;;;;;;;10.63;4.80;;;12.30;99.90;;;;;;5036752;28;20094;-82
2022/01/02 11:59:53;;;;;;;12.95;4.88;;;12.30;99.90;;;;;;5037779;28;20040;-82
2022/01/02 12:02:19;;;;;;;13.70;5.07;;;12.30;99.90;;;;;;5037766;28;20041;-82
2022/01/02 12:07:40;;;;;;;10.93;4.50;;;12.40;99.90;;;;;;5054397;28;20392;-82
2022/01/02 12:10:20;;;;;;;10.20;4.20;;;12.30;99.90;;;;;;5054063;28;20043;-82
2022/01/02 12:13:20;;;;;;;8.70;4.00;;;12.40;99.90;;;;;;5037827;28;20112;-82
2022/01/02 12:15:46;;;;;;;10.00;4.10;;;12.40;99.90;;;;;;5037704;28;20048;-82
2022/01/02 12:18:28;;;;;;;10.13;4.20;;;12.40;99.90;;;;;;5054437;28;20043;-82
2022/01/02 12:20:56;;;;;;;8.80;4.00;;;12.40;99.90;;;;;;5053900;28;20056;-82
2022/01/02 12:23:34;;;;;;;11.43;4.00;;;12.40;99.90;;;;;;5037789;28;20493;-82
2022/01/02 12:26:31;;;;;;;11.77;4.28;;;12.30;99.90;;;;;;5036377;28;20045;-82
2022/01/02 12:29:06;;;;;;;12.65;4.13;;;12.40;99.90;;;;;;5036080;28;20199;-82
2022/01/02 12:31:41;;;;;;;11.23;4.35;;;12.30;99.90;;;;;;5037099;28;20048;-82
2022/01/02 12:34:18;;;;;;;14.57;4.10;;;12.30;99.90;;;;;;5053910;28;20112;-82
2022/01/02 12:36:50;;;;;;;10.38;4.28;;;12.30;99.90;;;;;;5037019;28;20137;-82
2022/01/02 12:39:26;;;;;;;11.18;4.38;;;12.40;99.90;;;;;;5036220;28;20032;-82
2022/01/02 12:41:53;;;;;;;12.48;4.25;;;12.30;99.90;;;;;;5036206;28;20048;-82
2022/01/02 12:44:27;;;;;;;10.95;4.40;;;12.30;99.90;;;;;;5037152;28;20041;-82
2022/01/02 12:46:57;;;;;;;12.38;4.15;;;12.30;99.90;;;;;;5036834;28;20094;-82
2022/01/02 12:49:31;;;;;;;12.85;4.30;;;12.30;99.90;;;;;;5020424;28;20072;-82
2022/01/02 12:52:02;;;;;;;13.15;4.30;;;12.20;99.90;;;;;;5036731;28;20091;-82
2022/01/02 12:54:30;;;;;;;10.75;4.00;;;12.20;99.90;;;;;;5036963;28;20041;-82